Historique des mesures à Cassis (13260), France
Quotidien Résumé Fevrier 7, 2018 Unités:  Métrique    US   Métrique/US
« Précédent (Jour)
Suivant (Jour) »
Quotidien Hebdomadaire Mensuel Annuel Période au choix
  Maximum: Minimum: Moyenne:
Température: -17.8 °C -16.1 °C -15.2 °C
Point de rosée: -17.8 °C -19.8 °C -18.2 °C
Humidité: Humidity % 58 % 65 %
Vitesse du vent: 0 km/h 0 km/h 23.2 km/h
Rafales: 0 km/h - -
Vent:- - West
Pression: 0 hPa 33914.2 hPa -
Précipitations: 0 mm    
Historical Graphs
 
 
Mesures pour : Fevrier 7, 2018
Heure Temperature Point de rosée Pression Vent Vitesse du vent Rafales Humidité Pluie (par heure) Conditions
-17.8 °C -17.8 °C 0 hPa Calm     Humidity % 0 mm SoftwareType W/m2
00:12 -13.8 °C -15.7 °C 33958.2 hPa NW 26.7 km/h 26.7 km/h 79 % 0 mm open2300-1.11 W/m2
01:12 -13.8 °C -15.7 °C 33948 hPa Calm   4.7 km/h 79 % 0 mm open2300-1.11 W/m2
02:12 -14.5 °C -16.4 °C 33958.2 hPa NNW 12.2 km/h 12.2 km/h 79 % 0 mm open2300-1.11 W/m2
03:12 -14.8 °C -16.7 °C 33948 hPa WNW 18.7 km/h 18.7 km/h 79 % 0 mm open2300-1.11 W/m2
04:12 -15.2 °C -16.9 °C 33937.9 hPa NNW 23.8 km/h 24.8 km/h 80 % 0 mm open2300-1.11 W/m2
05:12 -15.3 °C -17.2 °C 33924.3 hPa WNW 4.7 km/h 31.4 km/h 79 % 0 mm open2300-1.11 W/m2
06:12 -15.7 °C -17.6 °C 33914.2 hPa WNW 24.8 km/h 37 km/h 78 % 0 mm open2300-1.11 W/m2
07:12 -15.9 °C -18 °C 33937.9 hPa NNW 14.5 km/h 37 km/h 76 % 0 mm open2300-1.11 W/m2
08:12 -15.9 °C -18.5 °C 33958.2 hPa WNW 14 km/h 22.5 km/h 72 % 0 mm open2300-1.11 W/m2
09:12 -15.8 °C -18.7 °C 33971.7 hPa NNW 19.2 km/h 27.7 km/h 69 % 0 mm open2300-1.11 W/m2
10:12 -15.5 °C -18.7 °C 33971.7 hPa NW 23 km/h 54.4 km/h 66 % 0 mm open2300-1.11 W/m2
11:12 -14.9 °C -18.4 °C 33992.1 hPa NNW 23 km/h 36 km/h 64 % 0 mm open2300-1.11 W/m2
12:12 -14.4 °C -18.3 °C 34015.8 hPa North 23 km/h 37.5 km/h 61 % 0 mm open2300-1.11 W/m2
13:12 -14.1 °C -18.2 °C 34015.8 hPa NNW 29.5 km/h 29.5 km/h 59 % 0 mm open2300-1.11 W/m2
14:12 -13.9 °C -18.2 °C 34005.6 hPa NW 49.2 km/h 49.2 km/h 58 % 0 mm open2300-1.11 W/m2
15:12 -14.1 °C -18.3 °C 34015.8 hPa NNW 20.9 km/h 30.7 km/h 58 % 0 mm open2300-1.11 W/m2
16:12 -14.4 °C -18.5 °C 34029.3 hPa North 41.2 km/h 80.5 km/h 59 % 0 mm open2300-1.11 W/m2
17:12 -14.7 °C -18.7 °C 34063.2 hPa NNW 11.6 km/h 35.2 km/h 60 % 0 mm open2300-1.11 W/m2
18:12 -15.2 °C -19 °C 34086.9 hPa NW 22 km/h 29 km/h 61 % 0 mm open2300-1.11 W/m2
19:12 -15.4 °C -19.4 °C 34097 hPa WNW 46.3 km/h 46.3 km/h 60 % 0 mm open2300-1.11 W/m2
20:12 -15.6 °C -19.6 °C 34107.2 hPa North 27.2 km/h 81.1 km/h 60 % 0 mm open2300-1.11 W/m2
21:12 -15.9 °C -19.8 °C 34120.7 hPa North 26.7 km/h 44.1 km/h 60 % 0 mm open2300-1.11 W/m2
22:12 -16 °C -19.7 °C 34154.6 hPa WNW 47.3 km/h 47.3 km/h 62 % 0 mm open2300-1.11 W/m2
23:12 -16.1 °C -19.8 °C 34164.7 hPa WNW 28.5 km/h 36.5 km/h 61 % 0 mm open2300-1.11 W/m2
Observations météo à CASSIS
WU-History script by Weather Underground - 1 mb